Time;durP1;ratioP1;P1;durP2;ratioP2;P2;SDS_P1;SDS_P2;PMS_P1;PMS_P2;Temp;Humidity;BMP_temperature;BMP_pressure;BME280_temperature;BME280_humidity;BME280_pressure;Samples;Min_cycle;Max_cycle;Signal;HPM_P1;HPM_P2
2023/08/29 00:02:44;;;;;;;1.10;0.90;;;;;;;;;;10217045;28;20142;-84
2023/08/29 00:07:48;;;;;;;1.10;0.80;;;;;;;;;;10216791;28;20111;-84
2023/08/29 00:12:52;;;;;;;0.95;0.68;;;;;;;;;;10219036;28;20590;-86
2023/08/29 00:17:56;;;;;;;1.33;0.80;;;;;;;;;;10220782;28;20134;-87
2023/08/29 00:23:00;;;;;;;2.55;0.88;;;;;;;;;;10221228;28;20055;-84
2023/08/29 00:28:07;;;;;;;0.95;0.77;;;;;;;;;;10235960;28;20051;-84
2023/08/29 00:33:12;;;;;;;2.17;0.80;;;;;;;;;;10252046;28;20054;-86
2023/08/29 00:38:15;;;;;;;0.88;0.50;;;;;;;;;;10213084;28;20051;-86
2023/08/29 00:43:19;;;;;;;2.28;0.75;;;;;;;;;;10227993;28;20059;-85
2023/08/29 00:48:25;;;;;;;0.93;0.57;;;;;;;;;;10235929;28;20063;-85
2023/08/29 00:53:30;;;;;;;0.77;0.68;;;;;;;;;;10259359;28;20106;-84
2023/08/29 00:58:34;;;;;;;3.45;0.75;;;;;;;;;;10235287;28;20066;-85
2023/08/29 01:09:24;;;;;;;1.05;0.75;;;;;;;;;;11478836;23;20801;-87
2023/08/29 01:14:36;;;;;;;0.93;0.85;;;;;;;;;;10225106;28;20041;-87
2023/08/29 01:19:41;;;;;;;1.10;0.85;;;;;;;;;;10224943;28;20548;-86
2023/08/29 01:24:52;;;;;;;0.90;0.82;;;;;;;;;;10225058;28;20111;-87
2023/08/29 01:29:58;;;;;;;2.20;0.90;;;;;;;;;;10224059;28;20078;-87
2023/08/29 01:35:05;;;;;;;0.90;0.80;;;;;;;;;;10225184;28;20077;-87
2023/08/29 01:40:10;;;;;;;1.20;1.02;;;;;;;;;;10225347;28;20055;-88
2023/08/29 01:45:15;;;;;;;1.35;1.10;;;;;;;;;;10225851;28;20058;-87
2023/08/29 01:50:20;;;;;;;0.85;0.80;;;;;;;;;;10225059;28;20063;-88
2023/08/29 01:55:25;;;;;;;1.10;0.70;;;;;;;;;;10225556;28;20122;-88
2023/08/29 02:00:32;;;;;;;2.05;1.10;;;;;;;;;;10224995;28;20055;-87
2023/08/29 02:05:35;;;;;;;2.10;0.90;;;;;;;;;;10224990;28;20118;-87
2023/08/29 02:10:38;;;;;;;2.35;0.85;;;;;;;;;;10222936;28;20051;-86
2023/08/29 02:15:43;;;;;;;1.10;1.00;;;;;;;;;;10222259;28;20114;-87
2023/08/29 02:20:46;;;;;;;1.60;0.88;;;;;;;;;;10223121;28;20047;-88
2023/08/29 02:26:02;;;;;;;0.75;0.68;;;;;;;;;;10224305;28;20077;-88
2023/08/29 02:31:08;;;;;;;0.63;0.63;;;;;;;;;;10229697;28;20051;-88
2023/08/29 02:36:12;;;;;;;;;;;;;;;;;;10222596;28;20050;-87
2023/08/29 02:41:16;;;;;;;1.10;0.85;;;;;;;;;;10222899;28;19923;-88
2023/08/29 02:46:20;;;;;;;1.63;1.15;;;;;;;;;;10224949;28;20079;-87
2023/08/29 02:51:24;;;;;;;1.25;0.90;;;;;;;;;;10223182;28;20055;-86
2023/08/29 02:56:27;;;;;;;1.23;1.02;;;;;;;;;;10240874;28;20066;-88
2023/08/29 03:01:32;;;;;;;1.17;1.08;;;;;;;;;;10240622;28;20061;-88
2023/08/29 03:06:35;;;;;;;1.73;0.90;;;;;;;;;;10234777;28;20047;-87
2023/08/29 03:11:39;;;;;;;1.65;0.98;;;;;;;;;;10224862;28;20140;-87
2023/08/29 03:16:44;;;;;;;1.10;1.00;;;;;;;;;;10222636;28;20449;-88
2023/08/29 03:21:47;;;;;;;2.47;0.95;;;;;;;;;;10224538;28;20086;-88
2023/08/29 03:26:51;;;;;;;1.00;0.80;;;;;;;;;;10225710;28;20453;-88
2023/08/29 03:31:56;;;;;;;1.35;1.00;;;;;;;;;;10243989;28;20051;-87
2023/08/29 03:36:59;;;;;;;1.33;1.00;;;;;;;;;;10223942;28;20063;-87
2023/08/29 03:42:03;;;;;;;2.88;0.95;;;;;;;;;;10246099;28;20047;-87
2023/08/29 03:47:08;;;;;;;1.13;1.02;;;;;;;;;;10222457;28;20047;-87
2023/08/29 03:52:12;;;;;;;1.23;0.93;;;;;;;;;;10223591;28;20460;-87
2023/08/29 03:57:15;;;;;;;2.13;0.88;;;;;;;;;;10226911;28;20043;-86
2023/08/29 04:02:20;;;;;;;2.55;0.90;;;;;;;;;;10223273;28;20046;-87
2023/08/29 04:07:23;;;;;;;2.63;0.90;;;;;;;;;;10226801;28;20079;-87
2023/08/29 04:12:27;;;;;;;1.00;0.77;;;;;;;;;;10222386;28;20089;-87
2023/08/29 04:17:32;;;;;;;2.00;0.98;;;;;;;;;;10221620;28;20078;-88
2023/08/29 04:22:36;;;;;;;1.10;1.00;;;;;;;;;;10227139;28;20133;-88
2023/08/29 04:27:41;;;;;;;2.20;0.73;;;;;;;;;;10229686;28;20338;-88
2023/08/29 04:32:47;;;;;;;1.17;1.00;;;;;;;;;;10229907;28;20054;-87
2023/08/29 04:37:51;;;;;;;;;;;;;;;;;;10228125;28;20121;-88
2023/08/29 04:42:54;;;;;;;1.88;1.08;;;;;;;;;;10229397;28;20017;-88
2023/08/29 04:47:59;;;;;;;1.00;0.90;;;;;;;;;;10230241;28;20051;-88
2023/08/29 04:53:03;;;;;;;1.35;0.88;;;;;;;;;;10228673;28;20062;-88
2023/08/29 04:58:09;;;;;;;0.98;0.93;;;;;;;;;;10230185;28;20055;-88
2023/08/29 05:03:14;;;;;;;;;;;;;;;;;;10233322;28;20062;-89
2023/08/29 05:08:23;;;;;;;0.90;0.88;;;;;;;;;;10243059;28;19926;-88
2023/08/29 05:13:27;;;;;;;2.70;1.20;;;;;;;;;;10239736;28;20044;-87
2023/08/29 05:18:34;;;;;;;1.30;1.17;;;;;;;;;;10231213;28;20106;-88
2023/08/29 05:23:38;;;;;;;1.70;1.45;;;;;;;;;;10238548;28;20106;-87
2023/08/29 05:28:42;;;;;;;2.70;1.50;;;;;;;;;;10231156;28;20070;-88
2023/08/29 05:33:49;;;;;;;1.73;1.15;;;;;;;;;;10214569;28;20050;-88
2023/08/29 05:38:53;;;;;;;2.15;1.20;;;;;;;;;;10229316;28;20043;-87
2023/08/29 05:43:58;;;;;;;1.55;1.17;;;;;;;;;;10247585;28;20071;-88
2023/08/29 05:49:03;;;;;;;1.45;1.35;;;;;;;;;;10245324;28;20043;-87
2023/08/29 05:54:12;;;;;;;1.98;1.45;;;;;;;;;;10253537;28;20066;-87
2023/08/29 05:59:16;;;;;;;4.18;1.73;;;;;;;;;;10245801;28;20114;-86
2023/08/29 06:04:25;;;;;;;1.58;1.48;;;;;;;;;;10228456;28;20110;-87
2023/08/29 06:09:28;;;;;;;1.63;1.50;;;;;;;;;;10228449;28;20054;-88
2023/08/29 06:14:35;;;;;;;1.55;1.45;;;;;;;;;;10230571;28;20517;-88
2023/08/29 06:19:39;;;;;;;3.75;2.17;;;;;;;;;;10248076;28;20055;-88
2023/08/29 06:24:43;;;;;;;2.78;2.58;;;;;;;;;;10225463;28;20185;-89
2023/08/29 06:29:46;;;;;;;4.03;3.65;;;;;;;;;;10235077;28;20390;-89
2023/08/29 06:34:58;;;;;;;4.15;3.28;;;;;;;;;;10230562;28;20138;-89
2023/08/29 06:40:10;;;;;;;5.07;3.80;;;;;;;;;;10257029;28;20522;-90
2023/08/29 06:45:13;;;;;;;3.83;3.42;;;;;;;;;;10230175;28;20051;-89
2023/08/29 06:50:21;;;;;;;4.78;4.25;;;;;;;;;;10228616;28;20051;-89
2023/08/29 06:55:25;;;;;;;4.95;4.45;;;;;;;;;;10229310;28;20350;-90
2023/08/29 07:00:36;;;;;;;5.85;5.25;;;;;;;;;;10234722;28;20051;-90
2023/08/29 08:21:54;;;;;;;9.00;6.80;;;;;;;;;;10185023;29;20043;-89
2023/08/29 08:27:07;;;;;;;5.53;5.03;;;;;;;;;;10252208;28;20051;-89
2023/08/29 08:32:16;;;;;;;10.48;7.63;;;;;;;;;;10236474;28;20055;-88
2023/08/29 08:37:21;;;;;;;6.28;5.43;;;;;;;;;;10233805;28;20436;-88
2023/08/29 08:42:31;;;;;;;7.03;4.78;;;;;;;;;;10233220;28;20051;-90
2023/08/29 08:47:36;;;;;;;5.00;3.92;;;;;;;;;;10215649;29;20062;-92
2023/08/29 08:52:44;;;;;;;10.50;6.80;;;;;;;;;;10217126;28;20623;-91
2023/08/29 08:57:50;;;;;;;9.88;6.70;;;;;;;;;;10251854;28;20051;-90
2023/08/29 09:02:59;;;;;;;5.35;4.10;;;;;;;;;;10272142;28;20050;-91
2023/08/29 09:08:11;;;;;;;6.35;5.55;;;;;;;;;;10231074;28;20059;-91
2023/08/29 09:13:18;;;;;;;6.85;4.97;;;;;;;;;;10209762;28;20039;-91
2023/08/29 09:18:26;;;;;;;6.20;4.80;;;;;;;;;;10192516;29;20048;-89
2023/08/29 09:23:37;;;;;;;6.32;4.75;;;;;;;;;;10171045;29;20059;-93
2023/08/29 09:28:48;;;;;;;6.57;4.68;;;;;;;;;;10206703;28;20045;-90
2023/08/29 09:33:52;;;;;;;10.60;5.68;;;;;;;;;;10234381;29;20047;-90
2023/08/29 09:38:59;;;;;;;14.00;8.50;;;;;;;;;;10229156;28;20062;-89
2023/08/29 09:44:14;;;;;;;15.20;10.93;;;;;;;;;;10226606;29;20102;-89
2023/08/29 09:49:17;;;;;;;7.50;5.43;;;;;;;;;;10236569;28;20527;-89
2023/08/29 09:54:32;;;;;;;12.35;8.30;;;;;;;;;;10229147;29;20059;-91
2023/08/29 09:59:42;;;;;;;5.50;4.32;;;;;;;;;;10247352;28;20504;-92
2023/08/29 10:04:52;;;;;;;5.47;3.33;;;;;;;;;;10248207;28;20051;-90
2023/08/29 10:10:08;;;;;;;9.15;6.18;;;;;;;;;;10219615;28;20061;-91
2023/08/29 10:15:15;;;;;;;7.47;4.38;;;;;;;;;;10261140;28;20094;-93
2023/08/29 10:20:22;;;;;;;6.20;4.35;;;;;;;;;;10230505;28;20055;-89
2023/08/29 10:25:29;;;;;;;8.95;5.82;;;;;;;;;;10244796;28;20597;-89
2023/08/29 10:30:33;;;;;;;10.20;4.93;;;;;;;;;;10229189;28;20090;-92
2023/08/29 10:35:43;;;;;;;5.18;3.97;;;;;;;;;;10223321;28;20058;-91
2023/08/29 10:40:48;;;;;;;6.00;4.00;;;;;;;;;;10251114;28;20651;-90
2023/08/29 10:45:57;;;;;;;9.18;6.25;;;;;;;;;;10235344;28;20173;-89
2023/08/29 10:51:17;;;;;;;9.87;6.53;;;;;;;;;;10238683;28;20048;-90
2023/08/29 10:56:26;;;;;;;9.07;6.60;;;;;;;;;;10203492;29;20102;-93
2023/08/29 11:01:39;;;;;;;9.68;7.38;;;;;;;;;;10214076;28;20054;-89
2023/08/29 11:06:53;;;;;;;10.43;7.35;;;;;;;;;;10242741;29;20070;-89
2023/08/29 11:12:08;;;;;;;8.43;6.43;;;;;;;;;;10244050;28;20070;-89
2023/08/29 11:17:12;;;;;;;11.47;7.80;;;;;;;;;;10235224;29;20051;-93
2023/08/29 11:22:22;;;;;;;8.02;5.78;;;;;;;;;;10258849;28;20050;-92
2023/08/29 11:27:36;;;;;;;7.38;5.50;;;;;;;;;;10265346;28;20050;-89
2023/08/29 11:32:40;;;;;;;5.70;3.90;;;;;;;;;;10229339;28;20114;-89
2023/08/29 11:37:48;;;;;;;5.38;4.25;;;;;;;;;;10226827;28;20051;-89
2023/08/29 11:42:53;;;;;;;4.57;2.85;;;;;;;;;;10217042;29;20063;-89
2023/08/29 11:48:00;;;;;;;3.10;2.70;;;;;;;;;;10244456;28;20678;-89
2023/08/29 11:53:04;;;;;;;3.95;2.40;;;;;;;;;;10228206;29;20051;-88
2023/08/29 11:58:16;;;;;;;5.00;3.70;;;;;;;;;;10245552;28;20051;-90
2023/08/29 12:03:21;;;;;;;6.55;3.83;;;;;;;;;;10244987;28;20051;-89
2023/08/29 12:08:40;;;;;;;3.75;2.58;;;;;;;;;;10241961;28;20146;-90
2023/08/29 12:14:07;;;;;;;5.57;3.72;;;;;;;;;;10227363;29;20094;-89
2023/08/29 12:19:16;;;;;;;6.22;4.25;;;;;;;;;;10225301;28;20143;-90
2023/08/29 12:24:24;;;;;;;5.40;2.35;;;;;;;;;;10227152;29;20390;-92
2023/08/29 12:29:29;;;;;;;3.50;2.47;;;;;;;;;;10244163;28;20059;-89
2023/08/29 12:34:33;;;;;;;4.30;2.97;;;;;;;;;;10225236;29;20083;-90
2023/08/29 12:39:39;;;;;;;4.50;2.78;;;;;;;;;;10243078;28;20062;-92
2023/08/29 12:44:44;;;;;;;5.07;3.17;;;;;;;;;;10239818;28;20075;-91
2023/08/29 12:49:56;;;;;;;3.13;2.00;;;;;;;;;;10233416;28;20058;-89
2023/08/29 12:55:02;;;;;;;4.38;2.78;;;;;;;;;;10250211;28;20058;-90
2023/08/29 13:00:09;;;;;;;3.90;2.42;;;;;;;;;;10233606;28;20078;-91
2023/08/29 13:05:19;;;;;;;4.53;2.60;;;;;;;;;;10243206;28;20064;-89
2023/08/29 13:10:23;;;;;;;7.47;4.43;;;;;;;;;;10233020;28;20394;-90
2023/08/29 13:15:30;;;;;;;4.70;3.17;;;;;;;;;;10250369;28;20469;-88
2023/08/29 13:20:46;;;;;;;9.45;5.53;;;;;;;;;;10232980;29;20059;-92
2023/08/29 13:25:49;;;;;;;6.55;3.90;;;;;;;;;;10233187;28;20075;-93
2023/08/29 13:30:59;;;;;;;3.95;2.70;;;;;;;;;;10232039;28;20066;-88
2023/08/29 13:36:02;;;;;;;6.63;3.33;;;;;;;;;;10231950;28;20059;-90
2023/08/29 13:41:10;;;;;;;3.83;2.58;;;;;;;;;;10232220;28;20050;-93
2023/08/29 13:46:15;;;;;;;1.98;1.75;;;;;;;;;;10232720;28;20424;-88
2023/08/29 13:51:19;;;;;;;3.47;2.35;;;;;;;;;;10249233;29;20048;-91
2023/08/29 13:56:24;;;;;;;2.53;1.70;;;;;;;;;;10230042;28;20421;-88
2023/08/29 14:01:31;;;;;;;3.00;2.13;;;;;;;;;;10230827;28;20071;-90
2023/08/29 14:06:35;;;;;;;1.80;1.60;;;;;;;;;;10218302;29;20159;-88
2023/08/29 14:11:39;;;;;;;3.05;2.30;;;;;;;;;;10205639;29;20102;-88
2023/08/29 14:16:44;;;;;;;3.10;2.60;;;;;;;;;;10241635;28;20058;-88
2023/08/29 14:21:48;;;;;;;3.63;2.90;;;;;;;;;;10236802;28;20042;-86
2023/08/29 14:26:51;;;;;;;4.75;2.40;;;;;;;;;;10220810;28;20099;-86
2023/08/29 14:31:56;;;;;;;2.70;2.42;;;;;;;;;;10227263;28;20073;-85
2023/08/29 14:37:01;;;;;;;3.20;2.30;;;;;;;;;;10235451;28;20062;-89
2023/08/29 14:42:05;;;;;;;1.80;1.23;;;;;;;;;;10220550;28;20054;-85
2023/08/29 14:47:10;;;;;;;2.50;0.80;;;;;;;;;;10218196;28;20425;-86
2023/08/29 14:52:13;;;;;;;1.17;0.70;;;;;;;;;;10230995;28;20055;-86
2023/08/29 14:57:17;;;;;;;0.68;0.63;;;;;;;;;;10241303;28;20172;-89
2023/08/29 15:02:21;;;;;;;1.92;0.63;;;;;;;;;;10241320;28;20049;-87
2023/08/29 15:07:26;;;;;;;0.98;0.50;;;;;;;;;;10213051;28;20142;-86
2023/08/29 15:12:29;;;;;;;0.68;0.40;;;;;;;;;;10217051;28;20638;-91
2023/08/29 15:17:34;;;;;;;0.70;0.40;;;;;;;;;;10229932;28;20071;-87
2023/08/29 15:22:38;;;;;;;0.52;0.43;;;;;;;;;;10225976;28;20399;-87
2023/08/29 15:27:41;;;;;;;1.50;0.40;;;;;;;;;;10257474;28;20109;-87
2023/08/29 15:32:46;;;;;;;0.95;0.60;;;;;;;;;;10264633;28;20046;-91
2023/08/29 15:37:49;;;;;;;0.70;0.57;;;;;;;;;;10226872;28;20441;-88
2023/08/29 15:42:53;;;;;;;0.63;0.60;;;;;;;;;;10242159;28;20043;-88
2023/08/29 15:47:59;;;;;;;1.90;0.90;;;;;;;;;;10226120;29;20114;-87
2023/08/29 15:53:03;;;;;;;0.90;0.77;;;;;;;;;;10241132;29;20052;-88
2023/08/29 15:58:08;;;;;;;1.70;1.05;;;;;;;;;;10242253;28;20055;-88
2023/08/29 16:03:13;;;;;;;2.83;0.77;;;;;;;;;;10224444;29;20055;-87
2023/08/29 16:08:17;;;;;;;0.80;0.70;;;;;;;;;;10241645;28;20070;-90
2023/08/29 16:13:20;;;;;;;1.77;1.35;;;;;;;;;;10223857;29;20730;-89
2023/08/29 16:18:25;;;;;;;2.08;0.77;;;;;;;;;;10246357;28;20058;-89
2023/08/29 16:23:29;;;;;;;1.30;0.90;;;;;;;;;;10231218;29;20082;-88
2023/08/29 16:28:32;;;;;;;1.65;1.15;;;;;;;;;;10249432;28;20055;-90
2023/08/29 16:33:37;;;;;;;1.67;1.08;;;;;;;;;;10225777;29;20051;-87
2023/08/29 16:38:42;;;;;;;1.00;0.80;;;;;;;;;;10192643;29;20066;-87
2023/08/29 16:43:45;;;;;;;0.63;0.60;;;;;;;;;;10238694;29;20054;-89
2023/08/29 16:48:50;;;;;;;0.60;0.45;;;;;;;;;;10248292;28;20656;-88
2023/08/29 16:53:54;;;;;;;0.63;0.53;;;;;;;;;;10233066;29;20040;-92
2023/08/29 16:58:58;;;;;;;0.80;0.55;;;;;;;;;;10191227;29;20155;-89
2023/08/29 17:04:04;;;;;;;0.73;0.63;;;;;;;;;;10191395;29;20079;-92
2023/08/29 17:09:07;;;;;;;0.60;0.43;;;;;;;;;;10196221;28;20099;-88
2023/08/29 17:14:10;;;;;;;0.77;0.40;;;;;;;;;;10251593;28;20044;-92
2023/08/29 17:19:15;;;;;;;0.73;0.45;;;;;;;;;;10245650;28;20051;-87
2023/08/29 17:24:19;;;;;;;0.50;0.50;;;;;;;;;;10218774;29;20050;-88
2023/08/29 17:29:23;;;;;;;0.30;0.30;;;;;;;;;;10201769;29;20047;-87
2023/08/29 17:34:28;;;;;;;0.30;0.30;;;;;;;;;;10258033;28;20830;-87
2023/08/29 17:39:33;;;;;;;0.50;0.50;;;;;;;;;;10239408;28;20214;-87
2023/08/29 17:44:36;;;;;;;0.50;0.50;;;;;;;;;;10231618;29;20054;-92
2023/08/29 17:49:42;;;;;;;0.55;0.55;;;;;;;;;;10233807;28;20043;-88
2023/08/29 17:54:46;;;;;;;0.63;0.57;;;;;;;;;;10256317;28;20505;-88
2023/08/29 17:59:54;;;;;;;0.98;0.77;;;;;;;;;;10244854;28;20512;-87
2023/08/29 18:04:59;;;;;;;0.98;0.75;;;;;;;;;;10221660;28;20062;-89
2023/08/29 18:10:11;;;;;;;0.67;0.63;;;;;;;;;;10260623;28;20149;-91
2023/08/29 18:15:17;;;;;;;0.55;0.55;;;;;;;;;;10191221;29;20103;-88
2023/08/29 18:20:22;;;;;;;0.77;0.70;;;;;;;;;;10208163;29;20048;-87
2023/08/29 18:25:25;;;;;;;0.95;0.63;;;;;;;;;;10190834;29;20433;-89
2023/08/29 18:30:29;;;;;;;1.10;0.70;;;;;;;;;;10207756;29;20099;-87
2023/08/29 18:35:35;;;;;;;0.70;0.60;;;;;;;;;;10225353;28;20050;-88
2023/08/29 18:40:39;;;;;;;0.82;0.70;;;;;;;;;;10246006;28;20095;-88
2023/08/29 18:45:43;;;;;;;1.90;0.70;;;;;;;;;;10260108;28;20645;-90
2023/08/29 18:50:48;;;;;;;1.10;0.90;;;;;;;;;;10244420;28;20054;-88
2023/08/29 18:55:51;;;;;;;1.20;0.70;;;;;;;;;;10267963;28;20051;-88
2023/08/29 19:00:55;;;;;;;1.05;0.80;;;;;;;;;;10285175;28;20508;-88
2023/08/29 22:28:41;;;;;;;0.80;0.80;;;;;;;;;;10169449;29;20119;-90
2023/08/29 22:33:45;;;;;;;0.50;0.50;;;;;;;;;;10135975;29;20056;-90
2023/08/29 22:38:48;;;;;;;1.02;0.70;;;;;;;;;;10119463;29;20056;-90
2023/08/29 22:43:53;;;;;;;1.05;0.77;;;;;;;;;;10154758;29;20071;-90
2023/08/29 22:48:57;;;;;;;0.50;0.43;;;;;;;;;;10123578;29;20421;-90
2023/08/29 22:54:40;;;;;;;0.77;0.50;;;;;;;;;;10146640;29;20751;-90
2023/08/29 22:59:46;;;;;;;0.55;0.50;;;;;;;;;;10124859;29;20048;-90
2023/08/29 23:04:49;;;;;;;1.73;0.90;;;;;;;;;;10129169;29;20104;-90
2023/08/29 23:09:55;;;;;;;0.95;0.80;;;;;;;;;;10141210;29;20052;-91
2023/08/29 23:15:00;;;;;;;0.40;0.40;;;;;;;;;;10144849;29;20040;-91
2023/08/29 23:20:13;;;;;;;1.95;0.60;;;;;;;;;;10147403;29;20056;-90
2023/08/29 23:25:17;;;;;;;1.92;0.70;;;;;;;;;;10128281;29;20060;-90
2023/08/29 23:30:30;;;;;;;0.85;0.80;;;;;;;;;;10136502;29;20056;-89
2023/08/29 23:41:26;;;;;;;0.75;0.75;;;;;;;;;;10132103;29;20052;-90
2023/08/29 23:46:32;;;;;;;0.50;0.50;;;;;;;;;;10128724;29;20060;-89
2023/08/29 23:51:35;;;;;;;1.00;0.82;;;;;;;;;;10133676;29;20060;-89
2023/08/29 23:56:39;;;;;;;1.92;0.95;;;;;;;;;;10135379;29;20061;-90
